sensor_id;sensor_type;location;lat;lon;timestamp;pressure;altitude;pressure_sealevel;temperature;humidity
14885;BME280;7534;50.762;7.000;2023-03-11T00:00:23;89223.00;;;-143.16;69.34
14885;BME280;7534;50.762;7.000;2023-03-11T00:02:52;89043.28;;;-143.16;68.67
14885;BME280;7534;50.762;7.000;2023-03-11T00:05:32;89031.16;;;-143.16;68.35
14885;BME280;7534;50.762;7.000;2023-03-11T00:07:59;89041.25;;;-143.16;67.18
14885;BME280;7534;50.762;7.000;2023-03-11T00:10:33;89013.00;;;-143.16;68.33
14885;BME280;7534;50.762;7.000;2023-03-11T00:13:00;89170.50;;;-143.16;67.14
14885;BME280;7534;50.762;7.000;2023-03-11T00:15:28;88932.22;;;-143.16;66.90
14885;BME280;7534;50.762;7.000;2023-03-11T00:17:54;88972.63;;;-143.16;66.96
14885;BME280;7534;50.762;7.000;2023-03-11T00:20:29;89033.19;;;-143.16;66.96
14885;BME280;7534;50.762;7.000;2023-03-11T00:22:56;88966.56;;;-143.16;67.24
14885;BME280;7534;50.762;7.000;2023-03-11T00:25:26;89067.50;;;-143.16;66.59
14885;BME280;7534;50.762;7.000;2023-03-11T00:27:52;89059.44;;;-143.16;66.87
14885;BME280;7534;50.762;7.000;2023-03-11T00:30:20;89037.22;;;-143.16;67.42
14885;BME280;7534;50.762;7.000;2023-03-11T00:32:52;89065.50;;;-143.16;67.65
14885;BME280;7534;50.762;7.000;2023-03-11T00:35:22;89029.16;;;-143.16;66.52
14885;BME280;7534;50.762;7.000;2023-03-11T00:37:55;89227.03;;;-143.16;66.48
14885;BME280;7534;50.762;7.000;2023-03-11T00:40:23;89004.91;;;-143.16;66.73
14885;BME280;7534;50.762;7.000;2023-03-11T00:42:49;88972.63;;;-143.16;66.45
14885;BME280;7534;50.762;7.000;2023-03-11T00:45:15;89243.19;;;-143.16;66.78
14885;BME280;7534;50.762;7.000;2023-03-11T00:47:41;89073.56;;;-143.16;66.71
14885;BME280;7534;50.762;7.000;2023-03-11T00:50:08;89186.66;;;-143.16;66.63
14885;BME280;7534;50.762;7.000;2023-03-11T00:52:34;88958.47;;;-143.16;66.65
14885;BME280;7534;50.762;7.000;2023-03-11T00:55:00;88926.19;;;-143.16;66.32
14885;BME280;7534;50.762;7.000;2023-03-11T00:57:25;89045.31;;;-143.16;67.24
14885;BME280;7534;50.762;7.000;2023-03-11T00:59:54;89039.25;;;-143.16;67.58
14885;BME280;7534;50.762;7.000;2023-03-11T01:02:20;89019.06;;;-143.16;66.95
14885;BME280;7534;50.762;7.000;2023-03-11T01:04:46;89006.94;;;-143.16;66.99
14885;BME280;7534;50.762;7.000;2023-03-11T01:07:12;89029.16;;;-143.16;66.80
14885;BME280;7534;50.762;7.000;2023-03-11T01:09:37;88847.44;;;-143.16;66.23
14885;BME280;7534;50.762;7.000;2023-03-11T01:12:03;89150.31;;;-143.16;66.48
14885;BME280;7534;50.762;7.000;2023-03-11T01:14:29;89027.13;;;-143.16;66.29
14885;BME280;7534;50.762;7.000;2023-03-11T01:16:55;88984.72;;;-143.16;66.30
14885;BME280;7534;50.762;7.000;2023-03-11T01:19:21;89029.16;;;-143.16;66.45
14885;BME280;7534;50.762;7.000;2023-03-11T01:21:47;88962.53;;;-143.16;66.65
14885;BME280;7534;50.762;7.000;2023-03-11T01:24:12;88855.50;;;-143.16;66.26
14885;BME280;7534;50.762;7.000;2023-03-11T01:26:38;89013.00;;;-143.16;66.67
14885;BME280;7534;50.762;7.000;2023-03-11T01:29:04;88976.66;;;-143.16;66.32
14885;BME280;7534;50.762;7.000;2023-03-11T01:31:29;88998.88;;;-143.16;66.42
14885;BME280;7534;50.762;7.000;2023-03-11T01:33:56;89109.91;;;-143.16;66.73
14885;BME280;7534;50.762;7.000;2023-03-11T01:36:22;88994.81;;;-143.16;66.38
14885;BME280;7534;50.762;7.000;2023-03-11T01:38:47;88984.72;;;-143.16;65.71
14885;BME280;7534;50.762;7.000;2023-03-11T01:41:13;89023.09;;;-143.16;65.88
14885;BME280;7534;50.762;7.000;2023-03-11T01:43:49;89035.22;;;-143.16;65.33
14885;BME280;7534;50.762;7.000;2023-03-11T01:47:23;89033.19;;;-143.16;65.37
14885;BME280;7534;50.762;7.000;2023-03-11T01:49:25;89051.38;;;-143.16;64.64
14885;BME280;7534;50.762;7.000;2023-03-11T01:51:56;89071.56;;;-143.16;64.83
14885;BME280;7534;50.762;7.000;2023-03-11T01:54:29;89279.53;;;-143.16;64.28
14885;BME280;7534;50.762;7.000;2023-03-11T01:56:58;88992.81;;;-143.16;64.63
14885;BME280;7534;50.762;7.000;2023-03-11T01:59:35;89017.03;;;-143.16;64.74
14885;BME280;7534;50.762;7.000;2023-03-11T02:02:22;89027.13;;;-143.16;64.68
14885;BME280;7534;50.762;7.000;2023-03-11T02:04:50;88976.66;;;-143.16;64.40
14885;BME280;7534;50.762;7.000;2023-03-11T02:07:17;89055.41;;;-143.16;64.70
14885;BME280;7534;50.762;7.000;2023-03-11T02:09:43;88970.59;;;-143.16;64.62
14885;BME280;7534;50.762;7.000;2023-03-11T02:12:12;89002.91;;;-143.16;64.06
14885;BME280;7534;50.762;7.000;2023-03-11T02:14:44;88897.91;;;-143.16;63.97
14885;BME280;7534;50.762;7.000;2023-03-11T02:17:12;89319.91;;;-143.16;63.17
14885;BME280;7534;50.762;7.000;2023-03-11T02:22:27;89021.06;;;-143.16;63.87
14885;BME280;7534;50.762;7.000;2023-03-11T02:27:41;89004.91;;;-143.16;64.30
14885;BME280;7534;50.762;7.000;2023-03-11T02:30:12;89057.41;;;-143.16;63.44
14885;BME280;7534;50.762;7.000;2023-03-11T02:32:38;88976.66;;;-143.16;63.22
14885;BME280;7534;50.762;7.000;2023-03-11T02:35:05;88998.88;;;-143.16;62.96
14885;BME280;7534;50.762;7.000;2023-03-11T02:37:31;88938.28;;;-143.16;63.10
14885;BME280;7534;50.762;7.000;2023-03-11T02:42:58;89105.88;;;-143.16;62.57
14885;BME280;7534;50.762;7.000;2023-03-11T02:45:27;89271.47;;;-143.16;62.47
14885;BME280;7534;50.762;7.000;2023-03-11T02:47:56;89049.34;;;-143.16;62.49
14885;BME280;7534;50.762;7.000;2023-03-11T02:50:25;88956.47;;;-143.16;62.33
14885;BME280;7534;50.762;7.000;2023-03-11T02:52:53;89008.97;;;-143.16;61.80
14885;BME280;7534;50.762;7.000;2023-03-11T02:55:19;89073.56;;;-143.16;61.77
14885;BME280;7534;50.762;7.000;2023-03-11T02:57:47;89085.69;;;-143.16;61.62
14885;BME280;7534;50.762;7.000;2023-03-11T03:00:15;89041.25;;;-143.16;62.04
14885;BME280;7534;50.762;7.000;2023-03-11T03:02:44;89065.50;;;-143.16;61.62
14885;BME280;7534;50.762;7.000;2023-03-11T03:05:11;89045.31;;;-143.16;61.38
14885;BME280;7534;50.762;7.000;2023-03-11T03:07:37;89067.50;;;-143.16;61.02
14885;BME280;7534;50.762;7.000;2023-03-11T03:10:05;89033.19;;;-143.16;60.73
14885;BME280;7534;50.762;7.000;2023-03-11T03:12:31;88986.75;;;-143.16;60.97
14885;BME280;7534;50.762;7.000;2023-03-11T03:14:57;88984.72;;;-143.16;61.23
14885;BME280;7534;50.762;7.000;2023-03-11T03:17:23;89077.59;;;-143.16;60.93
14885;BME280;7534;50.762;7.000;2023-03-11T03:19:49;89021.06;;;-143.16;61.25
14885;BME280;7534;50.762;7.000;2023-03-11T03:22:15;89089.72;;;-143.16;61.03
14885;BME280;7534;50.762;7.000;2023-03-11T03:24:40;89269.44;;;-143.16;61.35
14885;BME280;7534;50.762;7.000;2023-03-11T03:27:06;89073.56;;;-143.16;61.85
14885;BME280;7534;50.762;7.000;2023-03-11T03:29:32;89158.38;;;-143.16;61.43
14885;BME280;7534;50.762;7.000;2023-03-11T03:31:57;88964.53;;;-143.16;61.92
14885;BME280;7534;50.762;7.000;2023-03-11T03:34:23;89247.22;;;-143.16;61.99
14885;BME280;7534;50.762;7.000;2023-03-11T03:36:51;89097.81;;;-143.16;61.94
14885;BME280;7534;50.762;7.000;2023-03-11T03:39:16;89097.81;;;-143.16;61.74
14885;BME280;7534;50.762;7.000;2023-03-11T03:41:44;88903.97;;;-143.16;61.57
14885;BME280;7534;50.762;7.000;2023-03-11T03:44:10;89178.56;;;-143.16;62.32
14885;BME280;7534;50.762;7.000;2023-03-11T03:46:36;89023.09;;;-143.16;62.36
14885;BME280;7534;50.762;7.000;2023-03-11T03:49:03;89083.66;;;-143.16;62.57
14885;BME280;7534;50.762;7.000;2023-03-11T03:51:28;89091.75;;;-143.16;62.47
14885;BME280;7534;50.762;7.000;2023-03-11T03:53:54;89128.09;;;-143.16;62.79
14885;BME280;7534;50.762;7.000;2023-03-11T03:56:20;89095.78;;;-143.16;62.98
14885;BME280;7534;50.762;7.000;2023-03-11T03:58:45;88956.47;;;-143.16;63.42
14885;BME280;7534;50.762;7.000;2023-03-11T04:01:12;89170.50;;;-143.16;63.48
14885;BME280;7534;50.762;7.000;2023-03-11T04:03:38;89031.16;;;-143.16;64.03
14885;BME280;7534;50.762;7.000;2023-03-11T04:06:23;89132.13;;;-143.16;64.30
14885;BME280;7534;50.762;7.000;2023-03-11T04:08:53;89150.31;;;-143.16;64.52
14885;BME280;7534;50.762;7.000;2023-03-11T04:11:20;89006.94;;;-143.16;65.00
14885;BME280;7534;50.762;7.000;2023-03-11T04:13:46;89057.41;;;-143.16;65.37
14885;BME280;7534;50.762;7.000;2023-03-11T04:16:19;89061.47;;;-143.16;65.93
14885;BME280;7534;50.762;7.000;2023-03-11T04:18:45;89124.06;;;-143.16;65.94
14885;BME280;7534;50.762;7.000;2023-03-11T04:21:11;89069.53;;;-143.16;66.00
14885;BME280;7534;50.762;7.000;2023-03-11T04:23:37;89285.59;;;-143.16;66.27
14885;BME280;7534;50.762;7.000;2023-03-11T04:26:03;89099.81;;;-143.16;66.57
14885;BME280;7534;50.762;7.000;2023-03-11T04:28:29;89111.94;;;-143.16;66.94
14885;BME280;7534;50.762;7.000;2023-03-11T04:30:54;89148.28;;;-143.16;67.07
14885;BME280;7534;50.762;7.000;2023-03-11T04:33:20;89144.25;;;-143.16;67.47
14885;BME280;7534;50.762;7.000;2023-03-11T04:35:46;89055.41;;;-143.16;67.42
14885;BME280;7534;50.762;7.000;2023-03-11T04:38:11;89085.69;;;-143.16;68.13
14885;BME280;7534;50.762;7.000;2023-03-11T04:40:38;89182.59;;;-143.16;68.16
14885;BME280;7534;50.762;7.000;2023-03-11T04:43:04;89093.75;;;-143.16;68.34
14885;BME280;7534;50.762;7.000;2023-03-11T04:45:30;89150.31;;;-143.16;68.12
14885;BME280;7534;50.762;7.000;2023-03-11T04:47:55;89172.50;;;-143.16;68.48
14885;BME280;7534;50.762;7.000;2023-03-11T04:50:22;89101.84;;;-143.16;68.45
14885;BME280;7534;50.762;7.000;2023-03-11T04:52:48;89039.25;;;-143.16;68.18
14885;BME280;7534;50.762;7.000;2023-03-11T04:55:14;89164.44;;;-143.16;67.87
14885;BME280;7534;50.762;7.000;2023-03-11T04:57:42;89029.16;;;-143.16;67.37
14885;BME280;7534;50.762;7.000;2023-03-11T05:00:11;89150.31;;;-143.16;67.72
14885;BME280;7534;50.762;7.000;2023-03-11T05:02:39;89023.09;;;-143.16;67.75
14885;BME280;7534;50.762;7.000;2023-03-11T05:05:06;89142.22;;;-143.16;68.03
14885;BME280;7534;50.762;7.000;2023-03-11T05:07:32;89093.75;;;-143.16;67.38
14885;BME280;7534;50.762;7.000;2023-03-11T05:09:58;89311.84;;;-143.16;67.24
14885;BME280;7534;50.762;7.000;2023-03-11T05:12:25;89043.28;;;-143.16;66.71
14885;BME280;7534;50.762;7.000;2023-03-11T05:14:51;89093.75;;;-143.16;66.99
14885;BME280;7534;50.762;7.000;2023-03-11T05:17:16;89075.59;;;-143.16;67.06
14885;BME280;7534;50.762;7.000;2023-03-11T05:19:44;89160.41;;;-143.16;67.16
14885;BME280;7534;50.762;7.000;2023-03-11T05:22:10;89176.56;;;-143.16;67.26
14885;BME280;7534;50.762;7.000;2023-03-11T05:24:36;89128.09;;;-143.16;67.17
14885;BME280;7534;50.762;7.000;2023-03-11T05:27:03;89164.44;;;-143.16;67.42
14885;BME280;7534;50.762;7.000;2023-03-11T05:29:29;89101.84;;;-143.16;67.64
14885;BME280;7534;50.762;7.000;2023-03-11T05:31:55;89146.25;;;-143.16;67.42
14885;BME280;7534;50.762;7.000;2023-03-11T05:34:21;89178.56;;;-143.16;67.58
14885;BME280;7534;50.762;7.000;2023-03-11T05:36:46;89134.16;;;-143.16;67.40
14885;BME280;7534;50.762;7.000;2023-03-11T05:39:12;89142.22;;;-143.16;67.03
14885;BME280;7534;50.762;7.000;2023-03-11T05:41:38;89089.72;;;-143.16;66.68
14885;BME280;7534;50.762;7.000;2023-03-11T05:44:03;89049.34;;;-143.16;66.68
14885;BME280;7534;50.762;7.000;2023-03-11T05:46:29;89120.00;;;-143.16;66.21
14885;BME280;7534;50.762;7.000;2023-03-11T05:48:58;88984.72;;;-143.16;66.31
14885;BME280;7534;50.762;7.000;2023-03-11T05:51:24;89120.00;;;-143.16;66.16
14885;BME280;7534;50.762;7.000;2023-03-11T05:53:50;89126.06;;;-143.16;65.63
14885;BME280;7534;50.762;7.000;2023-03-11T05:56:21;89115.97;;;-143.16;66.10
14885;BME280;7534;50.762;7.000;2023-03-11T05:58:48;89122.03;;;-143.16;65.52
14885;BME280;7534;50.762;7.000;2023-03-11T06:01:17;89154.34;;;-143.16;65.35
14885;BME280;7534;50.762;7.000;2023-03-11T06:03:44;89124.06;;;-143.16;65.66
14885;BME280;7534;50.762;7.000;2023-03-11T06:06:11;89049.34;;;-143.16;65.33
14885;BME280;7534;50.762;7.000;2023-03-11T06:08:38;89105.88;;;-143.16;65.13
14885;BME280;7534;50.762;7.000;2023-03-11T06:11:08;89122.03;;;-143.16;65.06
14885;BME280;7534;50.762;7.000;2023-03-11T06:13:35;89049.34;;;-143.16;65.03
14885;BME280;7534;50.762;7.000;2023-03-11T06:16:02;89212.91;;;-143.16;64.93
14885;BME280;7534;50.762;7.000;2023-03-11T06:18:28;89063.47;;;-143.16;63.96
14885;BME280;7534;50.762;7.000;2023-03-11T06:20:57;89160.41;;;-143.16;63.88
14885;BME280;7534;50.762;7.000;2023-03-11T06:23:24;89059.44;;;-143.16;64.05
14885;BME280;7534;50.762;7.000;2023-03-11T06:25:59;89071.56;;;-143.16;63.04
14885;BME280;7534;50.762;7.000;2023-03-11T06:28:26;89077.59;;;-143.16;62.94
14885;BME280;7534;50.762;7.000;2023-03-11T06:30:52;89126.06;;;-143.16;61.92
14885;BME280;7534;50.762;7.000;2023-03-11T06:33:22;88994.81;;;-143.16;60.51
14885;BME280;7534;50.762;7.000;2023-03-11T06:35:59;88992.81;;;-143.16;60.38
14885;BME280;7534;50.762;7.000;2023-03-11T06:38:25;89021.06;;;-143.16;59.71
14885;BME280;7534;50.762;7.000;2023-03-11T06:40:51;88948.38;;;-143.16;58.39
14885;BME280;7534;50.762;7.000;2023-03-11T06:43:17;89023.09;;;-143.16;57.37
14885;BME280;7534;50.762;7.000;2023-03-11T06:45:43;88857.53;;;-143.16;56.58
14885;BME280;7534;50.762;7.000;2023-03-11T06:48:09;88908.00;;;-143.16;54.12
14885;BME280;7534;50.762;7.000;2023-03-11T06:50:35;88914.06;;;-143.16;53.56
14885;BME280;7534;50.762;7.000;2023-03-11T06:53:01;89152.31;;;-143.16;53.06
14885;BME280;7534;50.762;7.000;2023-03-11T06:55:27;88916.09;;;-143.16;53.80
14885;BME280;7534;50.762;7.000;2023-03-11T06:57:53;88908.00;;;-143.16;53.41
14885;BME280;7534;50.762;7.000;2023-03-11T07:00:18;88914.06;;;-143.16;53.63
14885;BME280;7534;50.762;7.000;2023-03-11T07:02:44;88819.16;;;-143.16;53.81
14885;BME280;7534;50.762;7.000;2023-03-11T07:05:10;88893.88;;;-143.16;54.09
14885;BME280;7534;50.762;7.000;2023-03-11T07:07:37;88893.88;;;-143.16;53.87
14885;BME280;7534;50.762;7.000;2023-03-11T07:10:05;88895.88;;;-143.16;54.05
14885;BME280;7534;50.762;7.000;2023-03-11T07:12:31;88948.38;;;-143.16;55.38
14885;BME280;7534;50.762;7.000;2023-03-11T07:14:57;88942.31;;;-143.16;56.02
14885;BME280;7534;50.762;7.000;2023-03-11T07:17:24;88970.59;;;-143.16;56.71
14885;BME280;7534;50.762;7.000;2023-03-11T07:19:50;88982.72;;;-143.16;56.02
14885;BME280;7534;50.762;7.000;2023-03-11T07:22:17;88926.19;;;-143.16;56.47
14885;BME280;7534;50.762;7.000;2023-03-11T07:24:47;88930.22;;;-143.16;57.11
14885;BME280;7534;50.762;7.000;2023-03-11T07:27:14;88996.84;;;-143.16;57.40
14885;BME280;7534;50.762;7.000;2023-03-11T07:29:40;88944.34;;;-143.16;57.84
14885;BME280;7534;50.762;7.000;2023-03-11T07:32:07;88940.31;;;-143.16;57.82
14885;BME280;7534;50.762;7.000;2023-03-11T07:34:33;88899.94;;;-143.16;56.39
14885;BME280;7534;50.762;7.000;2023-03-11T07:36:58;88657.66;;;-143.16;55.61
14885;BME280;7534;50.762;7.000;2023-03-11T07:39:24;88899.94;;;-143.16;55.66
14885;BME280;7534;50.762;7.000;2023-03-11T07:41:50;88922.13;;;-143.16;55.86
14885;BME280;7534;50.762;7.000;2023-03-11T07:44:17;88895.88;;;-143.16;55.24
14885;BME280;7534;50.762;7.000;2023-03-11T07:46:44;88794.94;;;-143.16;53.27
14885;BME280;7534;50.762;7.000;2023-03-11T07:49:10;88502.19;;;-143.16;47.26
14885;BME280;7534;50.762;7.000;2023-03-11T07:51:37;88665.72;;;-143.16;47.04
14885;BME280;7534;50.762;7.000;2023-03-11T07:54:04;88669.75;;;-143.16;47.04
14885;BME280;7534;50.762;7.000;2023-03-11T07:56:33;88463.84;;;-143.16;43.30
14885;BME280;7534;50.762;7.000;2023-03-11T07:59:02;88449.69;;;-143.16;41.21
14885;BME280;7534;50.762;7.000;2023-03-11T08:01:30;88550.66;;;-143.16;41.58
14885;BME280;7534;50.762;7.000;2023-03-11T08:04:03;88435.56;;;-143.16;40.72
14885;BME280;7534;50.762;7.000;2023-03-11T08:06:32;88322.53;;;-143.16;39.58
14885;BME280;7534;50.762;7.000;2023-03-11T08:09:01;88453.75;;;-143.16;39.36
14885;BME280;7534;50.762;7.000;2023-03-11T08:11:28;88261.97;;;-143.16;38.75
14885;BME280;7534;50.762;7.000;2023-03-11T08:13:54;88445.66;;;-143.16;37.81
14885;BME280;7534;50.762;7.000;2023-03-11T08:16:23;88066.16;;;-143.16;36.36
14885;BME280;7534;50.762;7.000;2023-03-11T08:18:51;88007.59;;;-143.16;33.95
14885;BME280;7534;50.762;7.000;2023-03-11T08:21:22;88074.22;;;-143.16;33.84
14885;BME280;7534;50.762;7.000;2023-03-11T08:23:49;87801.72;;;-143.16;31.60
14885;BME280;7534;50.762;7.000;2023-03-11T08:26:19;87953.09;;;-143.16;32.88
14885;BME280;7534;50.762;7.000;2023-03-11T08:28:47;87735.13;;;-143.16;30.47
14885;BME280;7534;50.762;7.000;2023-03-11T08:31:23;87539.34;;;-143.16;28.90
14885;BME280;7534;50.762;7.000;2023-03-11T08:33:52;87400.06;;;-143.16;27.88
14885;BME280;7534;50.762;7.000;2023-03-11T08:36:19;87583.75;;;-143.16;28.54
14885;BME280;7534;50.762;7.000;2023-03-11T08:38:45;87424.28;;;-143.16;27.58
14885;BME280;7534;50.762;7.000;2023-03-11T08:41:12;87466.69;;;-143.16;27.23
14885;BME280;7534;50.762;7.000;2023-03-11T08:43:38;87654.38;;;-143.16;29.41
14885;BME280;7534;50.762;7.000;2023-03-11T08:46:05;87866.31;;;-143.16;29.59
14885;BME280;7534;50.762;7.000;2023-03-11T08:48:36;87579.69;;;-143.16;28.07
14885;BME280;7534;50.762;7.000;2023-03-11T08:51:11;87668.50;;;-143.16;28.13
14885;BME280;7534;50.762;7.000;2023-03-11T08:53:38;87636.22;;;-143.16;28.94
14885;BME280;7534;50.762;7.000;2023-03-11T08:56:05;87662.44;;;-143.16;29.43
14885;BME280;7534;50.762;7.000;2023-03-11T08:58:31;87389.97;;;-143.16;26.99
14885;BME280;7534;50.762;7.000;2023-03-11T09:00:56;87819.88;;;-143.16;29.27
14885;BME280;7534;50.762;7.000;2023-03-11T09:03:22;87846.13;;;-143.16;30.08
14885;BME280;7534;50.762;7.000;2023-03-11T09:05:48;87821.91;;;-143.16;29.51
14885;BME280;7534;50.762;7.000;2023-03-11T09:08:14;87583.75;;;-143.16;27.77
14885;BME280;7534;50.762;7.000;2023-03-11T09:10:39;87547.41;;;-143.16;26.93
14885;BME280;7534;50.762;7.000;2023-03-11T09:13:05;87442.47;;;-143.16;26.63
14885;BME280;7534;50.762;7.000;2023-03-11T09:15:31;87375.84;;;-143.16;26.29
14885;BME280;7534;50.762;7.000;2023-03-11T09:17:57;87337.50;;;-143.16;25.89
14885;BME280;7534;50.762;7.000;2023-03-11T09:20:24;87394.03;;;-143.16;25.62
14885;BME280;7534;50.762;7.000;2023-03-11T09:22:49;87375.84;;;-143.16;25.49
14885;BME280;7534;50.762;7.000;2023-03-11T09:25:15;87678.59;;;-143.16;26.93
14885;BME280;7534;50.762;7.000;2023-03-11T09:27:41;87809.78;;;-143.16;27.99
14885;BME280;7534;50.762;7.000;2023-03-11T09:30:08;87906.69;;;-143.16;29.38
14885;BME280;7534;50.762;7.000;2023-03-11T09:32:35;88096.44;;;-143.16;30.91
14885;BME280;7534;50.762;7.000;2023-03-11T09:35:00;88163.03;;;-143.16;31.31
14885;BME280;7534;50.762;7.000;2023-03-11T09:37:26;87971.28;;;-143.16;29.26
14885;BME280;7534;50.762;7.000;2023-03-11T09:39:54;88021.75;;;-143.16;28.11
14885;BME280;7534;50.762;7.000;2023-03-11T09:45:24;87955.13;;;-143.16;28.83
14885;BME280;7534;50.762;7.000;2023-03-11T09:48:19;87900.63;;;-143.16;27.63
14885;BME280;7534;50.762;7.000;2023-03-11T09:50:59;87666.50;;;-143.16;26.04
14885;BME280;7534;50.762;7.000;2023-03-11T09:53:41;87714.94;;;-143.16;26.29
14885;BME280;7534;50.762;7.000;2023-03-11T09:56:10;88035.88;;;-143.16;27.94
14885;BME280;7534;50.762;7.000;2023-03-11T09:58:47;88009.63;;;-143.16;29.22
14885;BME280;7534;50.762;7.000;2023-03-11T10:01:22;88076.25;;;-143.16;28.76
14885;BME280;7534;50.762;7.000;2023-03-11T10:03:54;87999.53;;;-143.16;29.35
14885;BME280;7534;50.762;7.000;2023-03-11T10:06:24;87969.25;;;-143.16;28.78
14885;BME280;7534;50.762;7.000;2023-03-11T10:09:36;87957.16;;;-143.16;28.50
14885;BME280;7534;50.762;7.000;2023-03-11T10:12:39;88033.84;;;-143.16;29.57
14885;BME280;7534;50.762;7.000;2023-03-11T10:21:23;88619.28;;;-143.16;31.92
14885;BME280;7534;50.762;7.000;2023-03-11T10:24:13;88403.28;;;-143.16;31.31
14885;BME280;7534;50.762;7.000;2023-03-11T10:26:48;88441.63;;;-143.16;32.45
14885;BME280;7534;50.762;7.000;2023-03-11T10:29:43;88459.78;;;-143.16;32.22
14885;BME280;7534;50.762;7.000;2023-03-11T10:32:26;88510.28;;;-143.16;32.21
14885;BME280;7534;50.762;7.000;2023-03-11T10:35:16;88459.78;;;-143.16;32.82
14885;BME280;7534;50.762;7.000;2023-03-11T10:37:52;88451.72;;;-143.16;32.05
14885;BME280;7534;50.762;7.000;2023-03-11T10:40:34;88425.47;;;-143.16;32.32
14885;BME280;7534;50.762;7.000;2023-03-11T10:43:09;88681.88;;;-143.16;32.56
14885;BME280;7534;50.762;7.000;2023-03-11T10:45:40;88447.69;;;-143.16;33.29
14885;BME280;7534;50.762;7.000;2023-03-11T10:48:17;88433.56;;;-143.16;33.00
14885;BME280;7534;50.762;7.000;2023-03-11T10:51:12;88459.78;;;-143.16;32.19
14885;BME280;7534;50.762;7.000;2023-03-11T10:53:55;88403.28;;;-143.16;33.32
14885;BME280;7534;50.762;7.000;2023-03-11T10:56:35;88340.69;;;-143.16;31.94
14885;BME280;7534;50.762;7.000;2023-03-11T10:59:08;88225.63;;;-143.16;31.48
14885;BME280;7534;50.762;7.000;2023-03-11T11:01:58;88310.41;;;-143.16;29.51
14885;BME280;7534;50.762;7.000;2023-03-11T11:04:38;88270.03;;;-143.16;30.54
14885;BME280;7534;50.762;7.000;2023-03-11T11:07:33;88274.06;;;-143.16;29.29
14885;BME280;7534;50.762;7.000;2023-03-11T11:12:50;88253.88;;;-143.16;29.27
14885;BME280;7534;50.762;7.000;2023-03-11T11:15:30;88237.72;;;-143.16;28.92
14885;BME280;7534;50.762;7.000;2023-03-11T11:18:13;88272.06;;;-143.16;28.89
14885;BME280;7534;50.762;7.000;2023-03-11T11:20:58;88138.81;;;-143.16;29.85
14885;BME280;7534;50.762;7.000;2023-03-11T11:23:49;88193.31;;;-143.16;30.57
14885;BME280;7534;50.762;7.000;2023-03-11T11:26:27;88152.94;;;-143.16;29.13
14885;BME280;7534;50.762;7.000;2023-03-11T11:31:37;88207.44;;;-143.16;29.99
14885;BME280;7534;50.762;7.000;2023-03-11T11:36:53;88221.59;;;-143.16;28.81
14885;BME280;7534;50.762;7.000;2023-03-11T11:39:25;88185.25;;;-143.16;28.77
14885;BME280;7534;50.762;7.000;2023-03-11T11:41:53;88233.69;;;-143.16;29.34
14885;BME280;7534;50.762;7.000;2023-03-11T11:44:27;88399.22;;;-143.16;29.67
14885;BME280;7534;50.762;7.000;2023-03-11T11:47:02;88310.41;;;-143.16;30.32
14885;BME280;7534;50.762;7.000;2023-03-11T11:49:35;88225.63;;;-143.16;30.32
14885;BME280;7534;50.762;7.000;2023-03-11T11:52:38;88278.09;;;-143.16;30.30
14885;BME280;7534;50.762;7.000;2023-03-11T11:55:25;88286.19;;;-143.16;30.12
14885;BME280;7534;50.762;7.000;2023-03-11T11:57:52;88294.25;;;-143.16;30.20
14885;BME280;7534;50.762;7.000;2023-03-11T12:00:37;88270.03;;;-143.16;29.99
14885;BME280;7534;50.762;7.000;2023-03-11T12:09:50;88203.41;;;-143.16;27.61
14885;BME280;7534;50.762;7.000;2023-03-11T12:12:40;88263.97;;;-143.16;28.29
14885;BME280;7534;50.762;7.000;2023-03-11T12:15:38;88411.34;;;-143.16;28.38
14885;BME280;7534;50.762;7.000;2023-03-11T12:18:15;88326.56;;;-143.16;28.58
14885;BME280;7534;50.762;7.000;2023-03-11T12:20:54;88231.69;;;-143.16;28.29
14885;BME280;7534;50.762;7.000;2023-03-11T12:24:21;88344.72;;;-143.16;29.48
14885;BME280;7534;50.762;7.000;2023-03-11T12:26:51;88237.72;;;-143.16;29.78
14885;BME280;7534;50.762;7.000;2023-03-11T12:29:26;88286.19;;;-143.16;29.21
14885;BME280;7534;50.762;7.000;2023-03-11T12:31:55;88270.03;;;-143.16;29.96
14885;BME280;7534;50.762;7.000;2023-03-11T12:34:22;88197.34;;;-143.16;29.91
14885;BME280;7534;50.762;7.000;2023-03-11T12:36:57;88276.09;;;-143.16;28.84
14885;BME280;7534;50.762;7.000;2023-03-11T12:39:33;88243.78;;;-143.16;28.96
14885;BME280;7534;50.762;7.000;2023-03-11T12:42:20;88298.28;;;-143.16;29.07
14885;BME280;7534;50.762;7.000;2023-03-11T12:44:48;88132.75;;;-143.16;29.60
14885;BME280;7534;50.762;7.000;2023-03-11T12:49:42;88225.63;;;-143.16;30.26
14885;BME280;7534;50.762;7.000;2023-03-11T12:54:41;88171.13;;;-143.16;28.73
14885;BME280;7534;50.762;7.000;2023-03-11T13:00:21;88173.13;;;-143.16;29.21
14885;BME280;7534;50.762;7.000;2023-03-11T13:06:21;88102.47;;;-143.16;27.66
14885;BME280;7534;50.762;7.000;2023-03-11T13:08:56;88159.00;;;-143.16;28.71
14885;BME280;7534;50.762;7.000;2023-03-11T13:14:25;88112.56;;;-143.16;28.27
14885;BME280;7534;50.762;7.000;2023-03-11T13:16:53;88100.47;;;-143.16;30.00
14885;BME280;7534;50.762;7.000;2023-03-11T13:21:55;88110.56;;;-143.16;30.21
14885;BME280;7534;50.762;7.000;2023-03-11T13:30:05;88211.50;;;-143.16;28.98
14885;BME280;7534;50.762;7.000;2023-03-11T13:32:53;88241.78;;;-143.16;29.30
14885;BME280;7534;50.762;7.000;2023-03-11T13:38:59;88235.72;;;-143.16;30.43
14885;BME280;7534;50.762;7.000;2023-03-11T13:41:35;88268.00;;;-143.16;31.62
14885;BME280;7534;50.762;7.000;2023-03-11T13:44:23;88251.88;;;-143.16;30.88
14885;BME280;7534;50.762;7.000;2023-03-11T13:47:02;88233.69;;;-143.16;30.34
14885;BME280;7534;50.762;7.000;2023-03-11T13:49:58;88223.59;;;-143.16;29.94
14885;BME280;7534;50.762;7.000;2023-03-11T13:52:42;88152.94;;;-143.16;29.21
14885;BME280;7534;50.762;7.000;2023-03-11T13:55:33;88215.53;;;-143.16;29.57
14885;BME280;7534;50.762;7.000;2023-03-11T13:58:13;88270.03;;;-143.16;29.52
14885;BME280;7534;50.762;7.000;2023-03-11T14:00:54;88243.78;;;-143.16;31.61
14885;BME280;7534;50.762;7.000;2023-03-11T14:03:22;88221.59;;;-143.16;30.66
14885;BME280;7534;50.762;7.000;2023-03-11T14:06:04;88191.31;;;-143.16;29.74